HTDA/DAR METAR and TAF weather

Enter ICAO airport designator
Station Type Date Time Source
HTDA METAR 2021/05/14 13:00 UTC NOAA

HTDA 141300Z 20013KT 9999 FEW031 BKN032 31/22 Q1013 NOSIG


Station Type Date Time Source
HTDA Decoded METAR 2021/05/14 13:00 UTC NOAA

Dar Es Salaam Airport, Tanzania (HTDA) 06-52S 039-12E 55M
May 14, 2021 - 09:00 AM EDT / 2021.05.14 1300 UTC
Wind: from the SSW (200 degrees) at 15 MPH (13 KT):0
Visibility: greater than 7 mile(s):0
Sky conditions: mostly cloudy
Temperature: 87 F (31 C)
Heat index: 92.3 F (33.5 C):1
Dew Point: 71 F (22 C)
Relative Humidity: 58%
Pressure (altimeter): 29.91 in. Hg (1013 hPa)
ob: HTDA 141300Z 20013KT 9999 FEW031 BKN032 31/22 Q1013 NOSIG
cycle: 13

Station Type Date Time Source
HTDA TAF 2021/05/14 12:27 UTC NOAA

TAF TAF HTDA 141100Z 1412/1518 17015KT 9999 SCT023

Example: see airport list